Terminal Aerodrome Forecast
Issued by NWS Knoxville/Tri Cities, TN

Home | Current Version | Previous Version | Text Only | Print | Product List | Glossary On
Versions: 1 2 3 4 5 6 7 8 9 10 11 12 13 14
000
FTUS44 KMRX 281120
TAFCHA
TAF
KCHA 281120Z 2812/2912 24008KT 5SM -RA BR BKN050
     FM281600 24010KT P6SM SCT050 BKN100
     FM290600 22007KT P6SM VCTS BKN050CB=

USA.gov is the U.S. government's official web portal to all federal, state and local government web resources and services.